Time;durP1;ratioP1;P1;durP2;ratioP2;P2;SDS_P1;SDS_P2;PMS_P1;PMS_P2;Temp;Humidity;BMP_temperature;BMP_pressure;BME280_temperature;BME280_humidity;BME280_pressure;Samples;Min_cycle;Max_cycle;Signal;HPM_P1;HPM_P2
2021/03/27 00:02:09;;;;;;;;;;;;;;;-0.68;100.00;100000.95;1827804;78;21134;-70
2021/03/27 00:04:41;;;;;;;;;;;;;;;-0.68;100.00;99993.86;1757161;81;20582;-70
2021/03/27 00:07:42;;;;;;;;;;;;;;;-0.63;100.00;99998.63;1757083;81;20161;-70
2021/03/27 00:10:33;;;;;;;;;;;;;;;-0.62;100.00;99993.67;1788719;80;20135;-70
2021/03/27 00:13:25;;;;;;;;;;;;;;;-0.59;100.00;99993.32;1751566;82;20236;-70
2021/03/27 00:15:56;;;;;;;;;;;;;;;-0.55;100.00;99994.63;1751582;82;22487;-71
2021/03/27 00:18:45;;;;;;;;;;;;;;;-0.53;100.00;99990.02;1746270;82;20295;-70
2021/03/27 00:21:22;;;;;;;;;;;;;;;-0.51;100.00;99986.72;1751600;82;20134;-71
2021/03/27 00:24:00;;;;;;;;;;;;;;;-0.48;100.00;99986.37;1751452;82;20141;-70
2021/03/27 00:26:34;;;;;;;;;;;;;;;-0.42;100.00;99995.40;1751592;82;20161;-71
2021/03/27 00:29:06;;;;;;;;;;;;;;;-0.39;100.00;99995.08;1751544;82;22404;-71
2021/03/27 00:31:43;;;;;;;;;;;;;;;-0.36;100.00;99996.55;1751513;82;20201;-71
2021/03/27 00:34:14;;;;;;;;;;;;;;;-0.32;100.00;99999.15;1751480;82;20114;-71
2021/03/27 00:36:48;;;;;;;;;;;;;;;-0.32;100.00;99995.20;1751484;82;20182;-71
2021/03/27 00:39:25;;;;;;;;;;;;;;;-0.30;100.00;99988.75;1751540;82;20137;-71
2021/03/27 00:42:05;;;;;;;;;;;;;;;-0.26;100.00;99990.56;1751495;82;21299;-71
2021/03/27 00:44:37;;;;;;;;;;;;;;;-0.22;100.00;99992.69;1751279;82;20165;-71
2021/03/27 00:47:05;;;;;;;;;;;;;;;-0.16;100.00;99995.63;1751485;82;20162;-71
2021/03/27 00:49:39;;;;;;;;;;;;;;;-0.13;100.00;99996.09;1749883;82;20154;-71
2021/03/27 00:52:09;;;;;;;;;;;;;;;-0.08;100.00;99996.89;1745948;82;20158;-71
2021/03/27 00:54:45;;;;;;;;;;;;;;;-0.06;100.00;99999.67;1745928;82;21372;-71
2021/03/27 00:57:18;;;;;;;;;;;;;;;0.00;100.00;99998.18;1745946;82;20138;-71
2021/03/27 01:00:01;;;;;;;;;;;;;;;0.06;100.00;99994.83;1745950;82;20142;-70
2021/03/27 01:02:31;;;;;;;;;;;;;;;0.09;100.00;99994.98;1744283;82;20166;-71
2021/03/27 01:05:16;;;;;;;;;;;;;;;0.07;100.00;99996.46;1722698;82;20166;-71
2021/03/27 01:07:51;;;;;;;;;;;;;;;0.06;100.00;99990.88;1742201;82;22266;-70
2021/03/27 01:10:52;;;;;;;;;;;;;;;0.10;100.00;99995.29;1745885;82;20134;-70
2021/03/27 01:13:32;;;;;;;;;;;;;;;0.10;100.00;99994.81;1745378;82;20127;-70
2021/03/27 01:16:06;;;;;;;;;;;;;;;0.11;100.00;99995.13;1745128;82;20504;-71
2021/03/27 01:18:42;;;;;;;;;;;;;;;0.16;100.00;99998.06;1716764;82;20122;-70
2021/03/27 01:21:13;;;;;;;;;;;;;;;0.23;100.00;99996.05;1745974;82;21217;-70
2021/03/27 01:23:41;;;;;;;;;;;;;;;0.28;100.00;99998.98;1745837;82;20199;-71
2021/03/27 01:26:16;;;;;;;;;;;;;;;0.32;100.00;99992.34;1745914;82;20122;-71
2021/03/27 01:28:46;;;;;;;;;;;;;;;0.37;100.00;99991.34;1745928;82;20255;-70
2021/03/27 01:31:17;;;;;;;;;;;;;;;0.41;100.00;99999.20;1745951;82;20209;-70
2021/03/27 01:33:52;;;;;;;;;;;;;;;0.43;100.00;99998.03;1745880;82;21378;-71
2021/03/27 01:36:24;;;;;;;;;;;;;;;0.47;100.00;99995.88;1745809;82;20126;-70
2021/03/27 01:39:16;;;;;;;;;;;;;;;0.51;100.00;99996.33;1746009;82;20485;-71
2021/03/27 01:42:13;;;;;;;;;;;;;;;0.52;100.00;99993.52;1745816;82;20227;-71
2021/03/27 01:45:01;;;;;;;;;;;;;;;0.56;100.00;100000.06;1745984;82;20154;-71
2021/03/27 01:47:43;;;;;;;;;;;;;;;0.60;100.00;99997.91;1745515;82;20122;-71
2021/03/27 01:50:20;;;;;;;;;;;;;;;0.63;100.00;99993.08;1745889;82;20198;-71
2021/03/27 01:52:56;;;;;;;;;;;;;;;0.64;100.00;99994.73;1746123;82;20213;-71
2021/03/27 01:55:46;;;;;;;;;;;;;;;0.66;100.00;99992.41;1744536;82;20289;-71
2021/03/27 01:58:38;;;;;;;;;;;;;;;0.67;100.00;99992.74;1745947;82;20114;-71
2021/03/27 02:01:09;;;;;;;;;;;;;;;0.64;100.00;99992.60;1745880;82;21326;-71
2021/03/27 02:03:53;;;;;;;;;;;;;;;0.63;100.00;99994.40;1745807;82;20208;-71
2021/03/27 02:06:43;;;;;;;;;;;;;;;0.59;100.00;99993.64;1745851;82;20130;-71
2021/03/27 02:09:21;;;;;;;;;;;;;;;0.54;100.00;99991.52;1745888;82;20225;-71
2021/03/27 02:12:02;;;;;;;;;;;;;;;0.55;100.00;99992.34;1745906;82;20118;-71
2021/03/27 02:14:37;;;;;;;;;;;;;;;0.55;100.00;99997.62;1734622;82;20149;-71
2021/03/27 02:17:13;;;;;;;;;;;;;;;0.53;100.00;99998.30;1667096;84;20157;-71
2021/03/27 02:20:03;;;;;;;;;;;;;;;0.55;100.00;99998.95;1679562;84;20439;-71
2021/03/27 02:22:59;;;;;;;;;;;;;;;0.53;100.00;99999.11;1679436;85;20278;-71
2021/03/27 02:25:33;;;;;;;;;;;;;;;0.51;100.00;100002.42;1679478;85;20172;-71
2021/03/27 02:28:21;;;;;;;;;;;;;;;0.50;100.00;99998.16;1679214;85;22286;-69
2021/03/27 02:30:50;;;;;;;;;;;;;;;0.49;100.00;100000.95;1679458;85;20143;-70
2021/03/27 02:33:22;;;;;;;;;;;;;;;0.49;100.00;100011.52;1679481;85;20259;-70
2021/03/27 02:36:10;;;;;;;;;;;;;;;0.51;100.00;100010.34;1748764;81;20483;-70
2021/03/27 02:38:48;;;;;;;;;;;;;;;0.54;100.00;100010.02;1773919;81;20216;-70
2021/03/27 02:41:40;;;;;;;;;;;;;;;0.55;100.00;100009.00;1773858;81;21131;-70
2021/03/27 02:44:14;;;;;;;;;;;;;;;0.57;100.00;100010.98;1773814;81;20133;-71
2021/03/27 02:46:44;;;;;;;;;;;;;;;0.63;100.00;100005.47;1773900;81;20164;-71
2021/03/27 02:49:50;;;;;;;;;;;;;;;0.65;100.00;100008.77;1771925;80;20125;-71
2021/03/27 02:52:33;;;;;;;;;;;;;;;0.70;100.00;100010.37;1731821;82;20159;-71
2021/03/27 02:55:19;;;;;;;;;;;;;;;0.74;100.00;100005.56;1747550;82;21372;-70
2021/03/27 02:58:13;;;;;;;;;;;;;;;0.77;100.00;100005.20;1716216;83;20144;-70
2021/03/27 03:00:52;;;;;;;;;;;;;;;0.75;100.00;100005.88;1747562;82;20205;-71
2021/03/27 03:03:23;;;;;;;;;;;;;;;0.76;100.00;100016.75;1716228;83;20148;-71
2021/03/27 03:05:57;;;;;;;;;;;;;;;0.75;100.00;100011.97;1747526;82;20319;-71
2021/03/27 03:08:40;;;;;;;;;;;;;;;0.77;100.00;100011.81;1855012;77;20209;-69
2021/03/27 03:11:12;;;;;;;;;;;;;;;0.67;100.00;100017.84;1822611;78;20160;-71
2021/03/27 03:13:50;;;;;;;;;;;;;;;0.67;100.00;100008.59;1822750;78;21304;-70
2021/03/27 03:16:30;;;;;;;;;;;;;;;0.71;100.00;100013.35;1822587;78;20152;-70
2021/03/27 03:19:13;;;;;;;;;;;;;;;0.73;100.00;100014.47;1822606;78;20240;-71
2021/03/27 03:22:01;;;;;;;;;;;;;;;0.72;100.00;100018.12;1822613;78;20204;-71
2021/03/27 03:24:39;;;;;;;;;;;;;;;0.70;100.00;100024.90;1822670;78;20125;-71
2021/03/27 03:27:27;;;;;;;;;;;;;;;0.67;100.00;100023.13;1822017;78;22339;-70
2021/03/27 03:30:34;;;;;;;;;;;;;;;0.62;100.00;100017.87;1822707;78;20616;-70
2021/03/27 03:33:20;;;;;;;;;;;;;;;0.64;100.00;100022.98;1719696;82;20164;-71
2021/03/27 03:35:55;;;;;;;;;;;;;;;0.66;100.00;100021.47;1719504;83;20542;-71
2021/03/27 03:38:45;;;;;;;;;;;;;;;0.64;100.00;100020.34;1719517;83;20569;-71
2021/03/27 03:41:38;;;;;;;;;;;;;;;0.63;100.00;100027.42;1719567;83;22240;-71
2021/03/27 03:44:43;;;;;;;;;;;;;;;0.62;100.00;100021.02;1719406;83;20168;-71
2021/03/27 03:47:34;;;;;;;;;;;;;;;0.59;100.00;100026.66;1719428;82;20142;-71
2021/03/27 03:50:31;;;;;;;;;;;;;;;0.58;100.00;100023.67;1854901;77;20209;-70
2021/03/27 03:53:31;;;;;;;;;;;;;;;0.52;100.00;100023.08;1703687;82;20158;-70
2021/03/27 03:56:16;;;;;;;;;;;;;;;0.52;100.00;100022.58;1729277;82;21272;-71
2021/03/27 03:59:14;;;;;;;;;;;;;;;0.52;100.00;100025.72;1738942;82;20139;-71
2021/03/27 04:01:48;;;;;;;;;;;;;;;0.51;100.00;100026.70;1680036;85;20188;-71
2021/03/27 04:04:37;;;;;;;;;;;;;;;0.52;100.00;100021.25;1676311;85;20193;-72
2021/03/27 04:07:07;;;;;;;;;;;;;;;0.55;100.00;100027.50;1709508;84;20222;-71
2021/03/27 04:09:52;;;;;;;;;;;;;;;0.58;100.00;100031.09;1711494;84;21385;-71
2021/03/27 04:12:32;;;;;;;;;;;;;;;0.67;100.00;100031.87;1688151;84;20213;-71
2021/03/27 04:15:15;;;;;;;;;;;;;;;0.69;100.00;100030.38;1711628;84;20283;-71
2021/03/27 04:17:46;;;;;;;;;;;;;;;0.72;100.00;100029.52;1711500;84;20137;-70
2021/03/27 04:20:25;;;;;;;;;;;;;;;0.80;100.00;100030.75;1708007;84;20278;-70
2021/03/27 04:23:18;;;;;;;;;;;;;;;0.86;100.00;100033.20;1711015;84;22358;-71
2021/03/27 04:26:01;;;;;;;;;;;;;;;0.94;100.00;100031.80;1700342;82;20135;-70
2021/03/27 04:28:36;;;;;;;;;;;;;;;1.02;100.00;100029.58;1741819;82;20159;-70
2021/03/27 04:31:13;;;;;;;;;;;;;;;1.08;100.00;100035.48;1739644;81;20516;-70
2021/03/27 04:34:16;;;;;;;;;;;;;;;1.11;100.00;100039.08;1680417;85;20313;-71
2021/03/27 04:36:50;;;;;;;;;;;;;;;1.19;100.00;100041.63;1647756;87;21467;-71
2021/03/27 04:39:55;;;;;;;;;;;;;;;1.29;100.00;100042.19;1647579;85;20658;-71
2021/03/27 04:42:42;;;;;;;;;;;;;;;1.37;100.00;100044.42;1676479;85;20250;-70
2021/03/27 04:45:25;;;;;;;;;;;;;;;1.44;100.00;100051.45;1676091;85;20263;-71
2021/03/27 04:48:12;;;;;;;;;;;;;;;1.50;100.00;100043.30;1676361;85;20267;-70
2021/03/27 04:50:50;;;;;;;;;;;;;;;1.57;100.00;100046.02;1675353;85;21389;-71
2021/03/27 04:53:36;;;;;;;;;;;;;;;1.64;100.00;100049.58;1675808;85;20189;-71
2021/03/27 04:56:13;;;;;;;;;;;;;;;1.70;100.00;100051.51;1676474;85;20644;-70
2021/03/27 04:59:01;;;;;;;;;;;;;;;1.76;100.00;100049.44;1676382;85;20168;-71
2021/03/27 05:01:50;;;;;;;;;;;;;;;1.84;100.00;100048.54;1720151;83;20264;-70
2021/03/27 05:04:26;;;;;;;;;;;;;;;1.90;100.00;100051.76;1718849;83;21347;-70
2021/03/27 05:06:57;;;;;;;;;;;;;;;2.00;100.00;100053.60;1718873;83;20190;-70
2021/03/27 05:09:46;;;;;;;;;;;;;;;2.07;100.00;100056.34;1718867;83;20267;-70
2021/03/27 05:12:54;;;;;;;;;;;;;;;2.15;100.00;100055.70;1747003;82;20745;-70
2021/03/27 05:15:33;;;;;;;;;;;;;;;2.20;100.00;100064.94;1748511;82;20260;-71
2021/03/27 05:18:38;;;;;;;;;;;;;;;2.25;100.00;100066.01;1683957;84;21451;-71
2021/03/27 05:21:23;;;;;;;;;;;;;;;2.33;100.00;100059.80;1680889;85;20524;-70
2021/03/27 05:24:00;;;;;;;;;;;;;;;2.38;100.00;100066.67;1684213;85;20560;-71
2021/03/27 05:26:51;;;;;;;;;;;;;;;2.48;100.00;100063.72;1854839;77;20162;-70
2021/03/27 05:29:32;;;;;;;;;;;;;;;2.44;100.00;100071.21;1822635;78;20518;-70
2021/03/27 05:32:17;;;;;;;;;;;;;;;2.53;100.00;100070.09;1822518;78;21525;-70
2021/03/27 05:34:52;;;;;;;;;;;;;;;2.62;100.00;100068.15;1822514;78;20224;-71
2021/03/27 05:37:30;;;;;;;;;;;;;;;2.71;100.00;100066.99;1822634;78;20156;-72
2021/03/27 05:40:11;;;;;;;;;;;;;;;2.76;100.00;100077.03;1822365;78;20180;-71
2021/03/27 05:42:48;;;;;;;;;;;;;;;2.80;100.00;100070.34;1816352;78;20125;-71
2021/03/27 05:45:46;;;;;;;;;;;;;;;2.93;100.00;100080.24;1816508;79;21197;-71
2021/03/27 05:48:50;;;;;;;;;;;;;;;3.05;100.00;100085.86;1816283;79;20121;-71
2021/03/27 05:51:41;;;;;;;;;;;;;;;3.13;100.00;100078.56;1812478;79;20270;-71
2021/03/27 05:54:33;;;;;;;;;;;;;;;3.16;100.00;100076.88;1816282;79;20145;-71
2021/03/27 05:57:14;;;;;;;;;;;;;;;3.24;100.00;100077.75;1816388;79;20144;-71
2021/03/27 05:59:53;;;;;;;;;;;;;;;3.33;100.00;100083.20;1816363;79;21278;-71
2021/03/27 06:02:59;;;;;;;;;;;;;;;3.42;100.00;100090.01;1816390;79;20247;-71
2021/03/27 06:05:31;;;;;;;;;;;;;;;3.50;100.00;100089.84;1816367;79;20614;-71
2021/03/27 06:08:28;;;;;;;;;;;;;;;3.63;100.00;100095.77;1816344;79;20145;-71
2021/03/27 06:11:29;;;;;;;;;;;;;;;3.79;100.00;100093.30;1816307;78;20546;-71
2021/03/27 06:14:13;;;;;;;;;;;;;;;3.92;100.00;100093.38;1816384;78;21358;-72
2021/03/27 06:17:10;;;;;;;;;;;;;;;4.08;100.00;100094.87;1814680;79;20412;-72
2021/03/27 06:19:57;;;;;;;;;;;;;;;4.16;100.00;100101.84;1817029;78;20228;-71
2021/03/27 06:22:50;;;;;;;;;;;;;;;4.33;100.00;100101.80;1808246;78;20484;-71
2021/03/27 06:25:39;;;;;;;;;;;;;;;4.35;100.00;100096.30;1789259;79;20286;-69
2021/03/27 06:28:13;;;;;;;;;;;;;;;4.44;100.00;100104.41;1785022;79;22340;-70
2021/03/27 06:31:07;;;;;;;;;;;;;;;4.59;100.00;100104.24;1777480;80;20282;-71
2021/03/27 06:33:51;;;;;;;;;;;;;;;4.93;100.00;100101.95;1784956;79;20708;-69
2021/03/27 06:36:42;;;;;;;;;;;;;;;5.22;100.00;100107.88;1796243;79;20316;-70
2021/03/27 06:39:48;;;;;;;;;;;;;;;5.39;100.00;100103.80;1795713;78;20279;-70
2021/03/27 06:42:37;;;;;;;;;;;;;;;5.79;100.00;100113.05;1796829;79;21752;-70
2021/03/27 06:45:26;;;;;;;;;;;;;;;5.83;100.00;100112.11;1797536;80;20156;-70
2021/03/27 06:47:58;;;;;;;;;;;;;;;5.80;100.00;100114.16;1797367;80;20232;-71
2021/03/27 06:50:40;;;;;;;;;;;;;;;5.96;100.00;100120.11;1788350;80;20353;-71
2021/03/27 06:53:11;;;;;;;;;;;;;;;6.09;100.00;100120.05;1797042;80;20336;-70
2021/03/27 06:56:04;;;;;;;;;;;;;;;6.24;100.00;100115.80;1797465;80;21273;-70
2021/03/27 06:58:58;;;;;;;;;;;;;;;6.45;100.00;100118.69;1797731;80;20607;-71
2021/03/27 07:01:56;;;;;;;;;;;;;;;6.69;100.00;100120.29;1797130;79;20507;-69
2021/03/27 07:04:50;;;;;;;;;;;;;;;6.78;100.00;100129.16;1796693;80;20220;-69
2021/03/27 07:07:40;;;;;;;;;;;;;;;6.75;100.00;100125.59;1797031;80;20259;-69
2021/03/27 07:10:35;;;;;;;;;;;;;;;7.07;100.00;100127.73;1797759;80;20188;-70
2021/03/27 07:13:31;;;;;;;;;;;;;;;7.01;100.00;100127.28;1796904;80;20256;-71
2021/03/27 07:16:18;;;;;;;;;;;;;;;7.01;100.00;100121.13;1797055;79;20232;-71
2021/03/27 07:19:17;;;;;;;;;;;;;;;7.26;100.00;100126.48;1796979;80;20275;-72
2021/03/27 07:22:09;;;;;;;;;;;;;;;7.34;100.00;100122.19;1797277;80;20491;-70
2021/03/27 07:25:10;;;;;;;;;;;;;;;7.20;100.00;100125.51;1797567;80;21417;-69
2021/03/27 07:27:58;;;;;;;;;;;;;;;7.32;100.00;100122.92;1796195;79;20617;-71
2021/03/27 07:30:50;;;;;;;;;;;;;;;7.66;100.00;100126.93;1796978;79;20530;-70
2021/03/27 07:33:37;;;;;;;;;;;;;;;7.64;100.00;100126.36;1797048;78;20362;-70
2021/03/27 07:36:44;;;;;;;;;;;;;;;7.83;100.00;100126.36;1797420;79;20561;-70
2021/03/27 07:39:28;;;;;;;;;;;;;;;8.06;100.00;100125.20;1797827;79;21193;-70
2021/03/27 07:42:22;;;;;;;;;;;;;;;8.13;100.00;100121.93;1796974;79;20276;-70
2021/03/27 07:44:59;;;;;;;;;;;;;;;8.47;100.00;100123.69;1796394;79;22047;-71
2021/03/27 07:47:33;;;;;;;;;;;;;;;8.76;99.62;100128.75;1797805;80;20287;-71
2021/03/27 07:50:20;;;;;;;;;;;;;;;8.71;99.10;100123.27;1783395;80;20215;-70
2021/03/27 07:53:03;;;;;;;;;;;;;;;8.86;98.13;100129.53;1795585;80;21198;-70
2021/03/27 07:56:10;;;;;;;;;;;;;;;9.16;95.75;100134.87;1796451;79;20330;-70
2021/03/27 07:59:05;;;;;;;;;;;;;;;9.08;94.22;100123.66;1797394;80;20173;-68
2021/03/27 08:01:59;;;;;;;;;;;;;;;9.29;93.78;100127.14;1797843;80;20971;-70
2021/03/27 08:05:03;;;;;;;;;;;;;;;9.61;91.05;100127.62;1797382;79;20256;-70
2021/03/27 08:07:41;;;;;;;;;;;;;;;9.87;89.20;100128.17;1797351;80;22272;-71
2021/03/27 08:10:16;;;;;;;;;;;;;;;9.81;88.83;100130.47;1797205;79;20224;-72
2021/03/27 08:12:53;;;;;;;;;;;;;;;9.90;87.25;100126.89;1797219;80;20200;-69
2021/03/27 08:15:41;;;;;;;;;;;;;;;10.07;87.60;100131.84;1781763;80;20232;-70
2021/03/27 08:18:45;;;;;;;;;;;;;;;10.22;84.52;100134.03;1797515;80;20228;-70
2021/03/27 08:21:27;;;;;;;;;;;;;;;10.17;84.47;100133.39;1797547;80;20288;-70
2021/03/27 08:24:32;;;;;;;;;;;;;;;10.19;82.86;100136.66;1797511;79;20137;-70
2021/03/27 08:27:29;;;;;;;;;;;;;;;10.60;80.94;100134.80;1790575;79;20331;-70
2021/03/27 08:30:37;;;;;;;;;;;;;;;10.81;79.49;100136.53;1788024;79;20264;-71
2021/03/27 08:33:11;;;;;;;;;;;;;;;11.14;77.10;100138.44;1789043;80;20129;-70
2021/03/27 08:36:12;;;;;;;;;;;;;;;10.97;74.01;100134.39;1788609;79;21422;-71
2021/03/27 08:39:06;;;;;;;;;;;;;;;10.79;74.84;100138.64;1788613;80;20212;-71
2021/03/27 08:41:50;;;;;;;;;;;;;;;11.00;74.54;100138.45;1788486;79;20248;-71
2021/03/27 08:44:41;;;;;;;;;;;;;;;11.21;72.87;100130.23;1789053;80;20498;-73
2021/03/27 08:47:37;;;;;;;;;;;;;;;11.50;68.12;100136.34;1788935;79;20204;-69
2021/03/27 08:50:44;;;;;;;;;;;;;;;11.70;68.74;100132.59;1789121;80;21589;-70
2021/03/27 08:53:21;;;;;;;;;;;;;;;11.50;67.88;100134.45;1787982;79;20713;-70
2021/03/27 08:55:58;;;;;;;;;;;;;;;11.91;68.29;100130.25;1769144;80;20181;-70
2021/03/27 08:58:49;;;;;;;;;;;;;;;12.00;60.36;100130.08;1788520;80;20227;-70
2021/03/27 09:01:36;;;;;;;;;;;;;;;12.20;59.77;100130.36;1788555;79;20268;-72
2021/03/27 09:04:32;;;;;;;;;;;;;;;12.43;55.20;100129.81;1788614;79;22107;-71
2021/03/27 09:07:37;;;;;;;;;;;;;;;12.84;54.71;100129.72;1788009;79;20184;-71
2021/03/27 09:10:32;;;;;;;;;;;;;;;12.76;54.26;100126.65;1788649;79;20244;-68
2021/03/27 09:13:25;;;;;;;;;;;;;;;13.08;56.62;100128.87;1787246;79;20192;-70
2021/03/27 09:15:59;;;;;;;;;;;;;;;13.15;53.75;100129.17;1788850;80;20181;-70
2021/03/27 09:18:54;;;;;;;;;;;;;;;13.40;52.28;100125.37;1785970;80;21502;-70
2021/03/27 09:21:56;;;;;;;;;;;;;;;13.19;51.14;100124.36;1788800;79;20503;-71
2021/03/27 09:24:52;;;;;;;;;;;;;;;13.16;50.76;100118.69;1789025;80;20157;-71
2021/03/27 09:27:44;;;;;;;;;;;;;;;13.24;48.07;100126.30;1788293;80;20278;-69
2021/03/27 09:30:21;;;;;;;;;;;;;;;13.71;47.57;100130.97;1788658;79;20220;-70
2021/03/27 09:33:13;;;;;;;;;;;;;;;14.08;46.22;100125.50;1788385;80;21197;-71
2021/03/27 09:36:04;;;;;;;;;;;;;;;14.04;44.79;100129.82;1711094;82;20261;-71
2021/03/27 09:39:07;;;;;;;;;;;;;;;13.98;45.07;100136.80;1711074;82;20323;-71
2021/03/27 09:42:08;;;;;;;;;;;;;;;14.03;42.51;100127.38;1711556;84;20176;-70
2021/03/27 09:44:45;;;;;;;;;;;;;;;14.78;42.07;100131.99;1711425;82;20259;-69
2021/03/27 09:47:46;;;;;;;;;;;;;;;15.39;41.01;100127.97;1711391;84;22362;-70
2021/03/27 09:50:20;;;;;;;;;;;;;;;15.14;40.12;100131.50;1710827;84;20275;-70
2021/03/27 09:53:16;;;;;;;;;;;;;;;14.64;39.99;100121.42;1710732;82;20582;-72
2021/03/27 09:55:52;;;;;;;;;;;;;;;13.85;42.06;100123.23;1709915;84;21054;-70
2021/03/27 09:58:36;;;;;;;;;;;;;;;14.35;42.10;100118.59;1885522;76;20335;-70
2021/03/27 10:01:13;;;;;;;;;;;;;;;14.57;40.84;100124.36;1853011;77;20229;-70
2021/03/27 10:04:01;;;;;;;;;;;;;;;14.83;41.69;100119.03;1853344;77;21182;-69
2021/03/27 10:06:36;;;;;;;;;;;;;;;14.26;42.26;100118.84;1853787;77;20201;-70
2021/03/27 10:09:26;;;;;;;;;;;;;;;13.83;41.34;100126.19;1854522;77;20209;-71
2021/03/27 10:12:02;;;;;;;;;;;;;;;13.62;42.11;100120.39;1854897;77;20154;-70
2021/03/27 10:14:33;;;;;;;;;;;;;;;14.27;42.43;100117.77;1854800;77;20139;-72
2021/03/27 10:17:17;;;;;;;;;;;;;;;14.12;40.29;100121.21;1854890;77;22642;-70
2021/03/27 10:19:59;;;;;;;;;;;;;;;13.67;41.95;100117.72;1854471;77;20114;-69
2021/03/27 10:22:50;;;;;;;;;;;;;;;13.79;41.98;100114.83;1854658;77;20245;-69
2021/03/27 10:25:28;;;;;;;;;;;;;;;13.66;41.04;100114.75;1854014;77;20205;-70
2021/03/27 10:28:16;;;;;;;;;;;;;;;14.12;40.48;100116.36;1852268;76;20269;-70
2021/03/27 10:30:49;;;;;;;;;;;;;;;14.89;39.33;100115.24;1853522;77;22013;-71
2021/03/27 10:33:42;;;;;;;;;;;;;;;14.94;37.82;100115.25;1852567;77;20630;-70
2021/03/27 10:36:23;;;;;;;;;;;;;;;15.10;38.16;100122.84;1852982;77;20201;-69
2021/03/27 10:39:26;;;;;;;;;;;;;;;14.37;40.03;100116.44;1853494;77;20269;-69
2021/03/27 10:42:26;;;;;;;;;;;;;;;13.06;41.66;100110.78;1853424;77;20328;-69
2021/03/27 10:45:19;;;;;;;;;;;;;;;12.33;43.33;100104.94;1853455;77;22375;-69
2021/03/27 10:48:05;;;;;;;;;;;;;;;13.14;43.65;100115.43;1853208;77;20277;-71
2021/03/27 10:50:53;;;;;;;;;;;;;;;13.66;43.08;100111.52;1853436;76;20386;-70
2021/03/27 10:54:00;;;;;;;;;;;;;;;13.89;41.08;100107.62;1852760;77;20273;-70
2021/03/27 10:56:46;;;;;;;;;;;;;;;14.51;40.42;100109.20;1852951;75;20512;-70
2021/03/27 10:59:29;;;;;;;;;;;;;;;14.44;39.08;100109.99;1848799;77;22590;-70
2021/03/27 11:02:37;;;;;;;;;;;;;;;14.58;37.54;100107.90;1848593;77;20290;-69
2021/03/27 11:05:15;;;;;;;;;;;;;;;14.62;37.79;100104.66;1848347;77;20262;-70
2021/03/27 11:08:11;;;;;;;;;;;;;;;15.06;37.18;100103.62;1848395;77;20606;-70
2021/03/27 11:10:50;;;;;;;;;;;;;;;15.33;37.05;100102.00;1801204;76;20238;-69
2021/03/27 11:13:28;;;;;;;;;;;;;;;15.61;36.56;100095.21;1848074;77;21200;-68
2021/03/27 11:16:28;;;;;;;;;;;;;;;16.03;35.84;100095.39;1847510;77;20134;-68
2021/03/27 11:19:21;;;;;;;;;;;;;;;15.90;35.06;100097.34;1847943;77;20245;-69
2021/03/27 11:22:28;;;;;;;;;;;;;;;15.48;35.17;100094.95;1845233;76;20277;-69
2021/03/27 11:25:16;;;;;;;;;;;;;;;15.35;35.41;100098.48;1847864;77;20218;-70
2021/03/27 11:28:19;;;;;;;;;;;;;;;15.07;35.68;100099.86;1847445;77;21348;-70
2021/03/27 11:31:00;;;;;;;;;;;;;;;15.09;35.57;100099.58;1848178;76;20218;-70
2021/03/27 11:33:33;;;;;;;;;;;;;;;15.11;36.08;100097.41;1783667;79;20596;-70
2021/03/27 11:36:04;;;;;;;;;;;;;;;15.32;36.47;100094.98;1784202;80;20293;-68
2021/03/27 11:38:52;;;;;;;;;;;;;;;14.98;35.15;100102.83;1784336;79;20435;-69
2021/03/27 11:41:23;;;;;;;;;;;;;;;15.19;35.18;100095.55;1784398;80;21386;-68
2021/03/27 11:44:01;;;;;;;;;;;;;;;14.96;35.92;100089.56;1785453;79;20242;-68
2021/03/27 11:46:31;;;;;;;;;;;;;;;15.09;35.30;100096.35;1784840;79;20355;-69
2021/03/27 11:49:25;;;;;;;;;;;;;;;15.29;34.79;100096.88;1784964;80;20648;-72
2021/03/27 11:51:58;;;;;;;;;;;;;;;15.27;35.49;100094.98;1785329;79;20222;-69
2021/03/27 11:55:04;;;;;;;;;;;;;;;15.79;34.50;100092.48;1886728;76;20955;-69
2021/03/27 11:57:53;;;;;;;;;;;;;;;15.81;35.16;100092.22;1854691;77;20130;-70
2021/03/27 12:03:48;;;;;;;;;;;;;;;15.20;37.00;100087.69;1854423;77;20190;-70
2021/03/27 12:06:29;;;;;;;;;;;;;;;15.45;35.73;100092.25;1854411;77;20185;-69
2021/03/27 12:09:24;;;;;;;;;;;;;;;14.92;35.95;100091.72;1854651;77;20201;-69
2021/03/27 12:12:21;;;;;;;;;;;;;;;14.45;35.98;100085.40;1763251;80;20239;-70
2021/03/27 12:15:00;;;;;;;;;;;;;;;15.01;36.88;100083.36;1886098;76;20233;-69
2021/03/27 12:17:59;;;;;;;;;;;;;;;14.94;35.48;100086.86;1853403;77;20166;-69
2021/03/27 12:20:40;;;;;;;;;;;;;;;14.99;35.30;100088.22;1853978;77;21365;-70
2021/03/27 12:23:33;;;;;;;;;;;;;;;15.10;34.20;100087.15;1853658;77;20563;-71
2021/03/27 12:26:21;;;;;;;;;;;;;;;15.26;34.13;100087.13;1854141;77;20154;-71
2021/03/27 12:29:03;;;;;;;;;;;;;;;15.41;33.37;100088.49;1854452;77;20186;-70
2021/03/27 12:32:08;;;;;;;;;;;;;;;15.93;33.26;100084.60;1854567;77;20489;-69
2021/03/27 12:34:48;;;;;;;;;;;;;;;16.16;32.96;100078.28;1854623;77;21227;-69
2021/03/27 12:37:29;;;;;;;;;;;;;;;15.91;33.84;100073.23;1854979;77;20130;-69
2021/03/27 12:40:18;;;;;;;;;;;;;;;16.04;34.33;100075.89;1853848;77;20493;-70
2021/03/27 12:42:48;;;;;;;;;;;;;;;15.32;34.61;100077.41;1854011;77;20225;-68
2021/03/27 12:45:22;;;;;;;;;;;;;;;15.08;34.44;100073.08;1823777;77;20501;-70
2021/03/27 12:48:12;;;;;;;;;;;;;;;14.91;33.90;100079.30;1854778;77;21356;-70
2021/03/27 12:51:02;;;;;;;;;;;;;;;15.13;34.15;100078.48;1854133;77;20181;-69
2021/03/27 12:53:38;;;;;;;;;;;;;;;15.41;34.89;100073.06;1854755;77;20205;-70
2021/03/27 12:56:18;;;;;;;;;;;;;;;15.09;34.38;100084.19;1853909;77;20287;-69
2021/03/27 12:59:07;;;;;;;;;;;;;;;15.60;33.70;100071.13;1852728;77;20316;-70
2021/03/27 13:01:51;;;;;;;;;;;;;;;16.34;32.71;100072.77;1854636;77;20645;-69
2021/03/27 13:04:29;;;;;;;;;;;;;;;15.55;34.67;100073.30;1853207;77;20118;-70
2021/03/27 13:07:24;;;;;;;;;;;;;;;15.65;35.66;100077.87;1853648;77;20277;-69
2021/03/27 13:10:13;;;;;;;;;;;;;;;15.32;35.78;100076.05;1854817;77;20134;-71
2021/03/27 13:12:59;;;;;;;;;;;;;;;15.12;35.67;100070.13;1763917;79;20622;-69
2021/03/27 13:15:47;;;;;;;;;;;;;;;15.13;35.90;100073.08;1763723;81;20311;-69
2021/03/27 13:18:29;;;;;;;;;;;;;;;15.16;36.13;100067.16;1762147;79;20258;-70
2021/03/27 13:21:10;;;;;;;;;;;;;;;15.50;35.25;100065.19;1853392;77;20316;-69
2021/03/27 13:23:47;;;;;;;;;;;;;;;15.44;35.47;100064.95;1821416;78;20172;-69
2021/03/27 13:26:22;;;;;;;;;;;;;;;14.78;36.54;100059.84;1822163;78;21329;-70
2021/03/27 13:28:56;;;;;;;;;;;;;;;14.94;36.74;100062.53;1822057;78;20140;-70
2021/03/27 13:31:25;;;;;;;;;;;;;;;15.02;36.26;100056.61;1820982;78;20160;-70
2021/03/27 13:34:02;;;;;;;;;;;;;;;14.86;35.76;100053.63;1819492;78;20322;-70
2021/03/27 13:36:48;;;;;;;;;;;;;;;14.81;36.20;100058.48;1819261;78;20297;-70
2021/03/27 13:39:37;;;;;;;;;;;;;;;14.81;35.99;100053.08;1820164;78;21381;-70
2021/03/27 13:42:31;;;;;;;;;;;;;;;14.72;36.06;100050.64;1821011;78;20224;-69
2021/03/27 13:45:27;;;;;;;;;;;;;;;14.81;35.83;100059.03;1820250;78;20578;-70
2021/03/27 13:48:30;;;;;;;;;;;;;;;14.07;36.50;100048.31;1820744;78;20279;-69
2021/03/27 13:51:13;;;;;;;;;;;;;;;14.55;36.70;100053.58;1821847;78;20613;-69
2021/03/27 13:53:50;;;;;;;;;;;;;;;14.88;35.40;100043.36;1821346;78;21246;-69
2021/03/27 13:56:27;;;;;;;;;;;;;;;14.74;35.48;100044.42;1821708;78;20291;-70
2021/03/27 13:59:20;;;;;;;;;;;;;;;14.71;34.81;100043.63;1821740;78;20219;-71
2021/03/27 14:02:20;;;;;;;;;;;;;;;14.67;35.95;100043.87;1821700;78;20165;-71
2021/03/27 14:05:08;;;;;;;;;;;;;;;14.64;35.09;100041.72;1821781;78;20551;-70
2021/03/27 14:07:47;;;;;;;;;;;;;;;14.60;34.62;100033.87;1820616;78;20227;-70
2021/03/27 14:10:39;;;;;;;;;;;;;;;14.60;35.99;100041.46;1820185;78;20192;-69
2021/03/27 14:13:20;;;;;;;;;;;;;;;15.00;35.71;100043.36;1821269;78;20453;-69
2021/03/27 14:16:09;;;;;;;;;;;;;;;15.09;34.81;100041.45;1821661;78;20232;-70